Parc Betances, Puerto Rico
Current Conditions -  °F | °C
As of 10:50 AM on Saturday 20 Dec 2014 (Local Time) from TJBQ Reporting Station
Scattered Clouds Scattered Clouds  
Wind Chill: 82°   Ceiling: Unl
Heat Index: 86°   Visibility: 10mi
Dew Point: 70°   Wind: 14mph
Humidity: 66%   Direction: 110°ESE
Pressure: 30.07"   Gusts: 21mph
Location:  18.0849°N, 67.1633°W
Report Text: TJBQ 201450Z 11012G18KT 10SM SCT026 28/21 A3007 RMK RWY08 ATIS K
Loading
Personal Weather Stations






























Interactive Weather Map New forecast layout! Learn more

10-Day Weather Forecast

Advertisements
Track Severe Weather on mobile